createdAt,value
2019-03-09T00:02:10.990Z,5.80
2019-03-09T00:12:16.408Z,5.70
2019-03-09T00:22:22.015Z,5.70
2019-03-09T00:32:28.572Z,5.70
2019-03-09T00:42:34.313Z,5.60
2019-03-09T00:52:39.652Z,5.60
2019-03-09T01:02:45.060Z,5.70
2019-03-09T01:12:50.793Z,5.70
2019-03-09T01:22:56.142Z,5.80
2019-03-09T01:33:01.788Z,5.80
2019-03-09T01:43:07.551Z,5.80
2019-03-09T01:53:13.065Z,5.70
2019-03-09T02:03:18.368Z,5.50
2019-03-09T02:13:23.675Z,5.50
2019-03-09T02:23:29.153Z,5.40
2019-03-09T02:33:34.943Z,5.40
2019-03-09T02:43:40.305Z,5.40
2019-03-09T02:53:45.884Z,5.40
2019-03-09T03:03:51.267Z,5.40
2019-03-09T03:13:56.670Z,5.30
2019-03-09T03:24:02.350Z,5.30
2019-03-09T03:34:07.903Z,5.50
2019-03-09T03:44:13.224Z,5.60
2019-03-09T03:54:18.793Z,5.60
2019-03-09T04:04:24.245Z,5.40
2019-03-09T04:14:29.638Z,5.30
2019-03-09T04:24:38.528Z,5.30
2019-03-09T04:34:43.957Z,5.20
2019-03-09T04:44:49.357Z,5.20
2019-03-09T04:54:54.935Z,5.10
2019-03-09T05:05:00.542Z,5.10
2019-03-09T05:15:07.403Z,5.10
2019-03-09T05:25:12.675Z,5.10
2019-03-09T05:35:18.131Z,5.10
2019-03-09T05:45:23.520Z,5.20
2019-03-09T05:55:30.176Z,5.40
2019-03-09T06:05:39.974Z,5.60
2019-03-09T06:15:45.443Z,5.60
2019-03-09T06:25:50.867Z,5.80
2019-03-09T06:36:19.019Z,5.90
2019-03-09T06:46:24.402Z,6.00
2019-03-09T06:56:29.754Z,6.10
2019-03-09T07:06:35.142Z,6.50
2019-03-09T07:16:40.479Z,7.10
2019-03-09T07:26:46.021Z,7.50
2019-03-09T07:36:51.388Z,8.10
2019-03-09T07:46:57.929Z,8.90
2019-03-09T07:57:03.441Z,8.80
2019-03-09T08:07:08.941Z,9.00
2019-03-09T08:17:14.707Z,9.10
2019-03-09T08:27:20.170Z,9.40
2019-03-09T08:37:25.562Z,9.40
2019-03-09T08:47:31.256Z,9.10
2019-03-09T08:57:36.659Z,9.10
2019-03-09T09:07:42.018Z,9.40
2019-03-09T09:17:47.748Z,9.80
2019-03-09T09:27:53.342Z,10.50
2019-03-09T09:37:58.883Z,11.00
2019-03-09T09:48:04.264Z,11.20
2019-03-09T09:58:09.832Z,11.40
2019-03-09T10:08:15.351Z,11.90
2019-03-09T10:18:21.919Z,12.40
2019-03-09T10:28:27.393Z,12.10
2019-03-09T10:38:33.163Z,11.80
2019-03-09T10:48:38.809Z,11.80
2019-03-09T10:58:44.643Z,12.10
2019-03-09T11:08:50.511Z,12.40
2019-03-09T11:18:56.155Z,12.50
2019-03-09T11:29:01.514Z,12.30
2019-03-09T11:39:08.333Z,12.40
2019-03-09T11:49:13.938Z,12.70
2019-03-09T11:59:19.541Z,12.50
2019-03-09T12:09:25.332Z,12.20
2019-03-09T12:19:30.939Z,12.00
2019-03-09T12:29:36.394Z,12.00
2019-03-09T12:39:41.876Z,11.80
2019-03-09T12:49:48.366Z,11.60
2019-03-09T12:59:58.575Z,10.90
2019-03-09T13:10:04.057Z,9.70
2019-03-09T13:20:10.286Z,9.10
2019-03-09T13:30:17.388Z,8.70
2019-03-09T13:40:22.935Z,8.50
2019-03-09T13:50:28.287Z,8.00
2019-03-09T14:00:40.423Z,7.70
2019-03-09T14:10:40.700Z,7.50
2019-03-09T14:20:48.234Z,7.60
2019-03-09T14:30:52.972Z,7.80
2019-03-09T14:40:58.306Z,7.90
2019-03-09T14:51:03.916Z,8.00
2019-03-09T15:01:09.624Z,7.70
2019-03-09T15:11:15.089Z,7.10
2019-03-09T15:21:20.401Z,6.80
2019-03-09T15:31:25.779Z,6.70
2019-03-09T15:41:31.749Z,6.80
2019-03-09T15:51:37.185Z,6.80
2019-03-09T16:01:42.836Z,6.90
2019-03-09T16:11:48.329Z,6.80
2019-03-09T16:21:53.790Z,6.40
2019-03-09T16:31:59.548Z,6.50
2019-03-09T16:42:05.116Z,6.50
2019-03-09T16:52:11.536Z,6.40
2019-03-09T17:02:27.348Z,6.10
2019-03-09T17:12:25.031Z,5.90
2019-03-09T17:22:33.144Z,5.80
2019-03-09T17:32:37.857Z,5.70
2019-03-09T17:42:43.516Z,5.70
2019-03-09T17:52:49.015Z,5.70
2019-03-09T18:02:54.403Z,5.80
2019-03-09T18:12:59.842Z,5.90
2019-03-09T18:23:05.317Z,6.00
2019-03-09T18:33:10.857Z,6.00
2019-03-09T18:43:16.872Z,6.20
2019-03-09T18:53:22.459Z,6.30
2019-03-09T19:03:27.970Z,6.40
2019-03-09T19:13:33.377Z,6.40
2019-03-09T19:23:38.974Z,6.40
2019-03-09T19:33:44.299Z,6.30
2019-03-09T19:43:49.992Z,6.30
2019-03-09T19:53:55.843Z,6.30
2019-03-09T20:04:01.337Z,6.30
2019-03-09T20:14:06.865Z,6.40
2019-03-09T20:24:12.362Z,6.50
2019-03-09T20:34:17.840Z,6.60
2019-03-09T20:44:24.367Z,6.70
2019-03-09T20:54:29.855Z,6.80
2019-03-09T21:04:35.408Z,6.90
2019-03-09T21:14:41.209Z,6.90
2019-03-09T21:24:46.850Z,7.10
2019-03-09T21:34:52.230Z,7.20
2019-03-09T21:44:57.978Z,7.20
2019-03-09T21:55:03.373Z,6.90
2019-03-09T22:05:10.660Z,6.80
2019-03-09T22:15:16.155Z,6.90
2019-03-09T22:25:21.546Z,6.90
2019-03-09T22:35:27.077Z,7.00
2019-03-09T22:45:32.612Z,7.00
2019-03-09T22:55:38.716Z,7.00
2019-03-09T23:05:44.178Z,7.00
2019-03-09T23:15:49.625Z,6.90
2019-03-09T23:25:55.126Z,6.90
2019-03-09T23:36:00.504Z,6.90
2019-03-09T23:46:05.946Z,6.90
2019-03-09T23:56:13.604Z,6.90
